createdAt,value
2019-05-07T00:07:34.597Z,17.57
2019-05-07T00:12:38.886Z,17.02
2019-05-07T00:17:43.036Z,15.28
2019-05-07T00:22:47.563Z,17.37
2019-05-07T00:27:52.402Z,14.50
2019-05-07T00:32:56.576Z,16.35
2019-05-07T00:38:05.412Z,15.75
2019-05-07T00:43:14.122Z,15.63
2019-05-07T00:48:18.515Z,16.17
2019-05-07T00:53:23.774Z,15.65
2019-05-07T00:58:27.931Z,15.68
2019-05-07T01:03:32.830Z,15.30
2019-05-07T01:08:37.010Z,14.35
2019-05-07T01:13:43.064Z,16.77
2019-05-07T01:18:47.413Z,14.40
2019-05-07T01:28:59.648Z,14.13
2019-05-07T01:34:23.096Z,14.43
2019-05-07T01:39:27.345Z,14.73
2019-05-07T01:44:32.571Z,14.15
2019-05-07T01:49:37.214Z,12.88
2019-05-07T01:54:42.563Z,13.38
2019-05-07T01:59:47.167Z,14.35
2019-05-07T02:05:04.814Z,11.83
2019-05-07T02:10:16.307Z,13.55
2019-05-07T02:15:22.508Z,12.40
2019-05-07T02:20:26.521Z,13.18
2019-05-07T02:25:32.765Z,12.18
2019-05-07T02:30:37.444Z,13.05
2019-05-07T02:35:43.965Z,12.70
2019-05-07T02:40:53.427Z,12.90
2019-05-07T02:46:36.022Z,13.70
2019-05-07T02:51:48.952Z,12.90
2019-05-07T02:56:53.538Z,12.07
2019-05-07T03:07:13.179Z,12.88
2019-05-07T03:12:17.909Z,10.95
2019-05-07T03:17:24.661Z,13.32
2019-05-07T03:22:29.277Z,12.55
2019-05-07T03:27:34.390Z,13.20
2019-05-07T03:32:47.700Z,12.10
2019-05-07T03:37:49.284Z,12.93
2019-05-07T03:42:53.795Z,13.00
2019-05-07T03:53:16.849Z,13.75
2019-05-07T03:58:23.491Z,13.75
2019-05-07T04:03:27.167Z,13.08
2019-05-07T04:08:33.478Z,12.30
2019-05-07T04:13:36.927Z,13.28
2019-05-07T04:18:43.684Z,12.40
2019-05-07T04:23:48.703Z,12.40
2019-05-07T04:29:05.967Z,12.45
2019-05-07T04:34:18.986Z,12.35
2019-05-07T04:39:23.504Z,11.43
2019-05-07T04:44:27.897Z,10.90
2019-05-07T04:49:33.149Z,10.53
2019-05-07T04:54:37.645Z,10.63
2019-05-07T04:59:42.834Z,12.50
2019-05-07T05:04:47.385Z,11.85
2019-05-07T05:09:53.142Z,12.07
2019-05-07T05:14:57.598Z,12.55
2019-05-07T05:20:03.553Z,12.03
2019-05-07T05:25:26.841Z,10.32
2019-05-07T05:30:44.433Z,10.20
2019-05-07T05:35:49.282Z,9.60
2019-05-07T05:40:53.798Z,10.32
2019-05-07T05:51:24.574Z,9.53
2019-05-07T05:56:37.465Z,10.13
2019-05-07T06:02:04.476Z,10.20
2019-05-07T06:07:14.705Z,10.50
2019-05-07T06:12:38.006Z,10.90
2019-05-07T06:18:17.676Z,11.47
2019-05-07T06:23:33.024Z,11.65
2019-05-07T06:28:37.233Z,10.60
2019-05-07T06:33:42.972Z,10.23
2019-05-07T06:39:03.140Z,11.78
2019-05-07T06:44:12.787Z,10.60
2019-05-07T06:49:18.462Z,10.65
2019-05-07T06:54:22.776Z,10.98
2019-05-07T06:59:35.268Z,10.63
2019-05-07T07:04:46.660Z,9.28
2019-05-07T07:10:03.511Z,9.93
2019-05-07T07:15:08.569Z,10.32
2019-05-07T07:20:13.022Z,10.58
2019-05-07T07:25:17.264Z,9.60
2019-05-07T07:30:32.592Z,9.45
2019-05-07T07:35:36.975Z,10.98
2019-05-07T07:40:45.150Z,9.05
2019-05-07T07:45:49.194Z,7.95
2019-05-07T07:50:53.804Z,7.33
2019-05-07T08:01:42.163Z,6.58
2019-05-07T08:06:48.143Z,6.45
2019-05-07T08:11:52.764Z,5.90
2019-05-07T08:22:02.598Z,4.65
2019-05-07T08:27:06.302Z,4.40
2019-05-07T08:32:22.421Z,4.62
2019-05-07T08:37:27.059Z,3.90
2019-05-07T08:42:32.045Z,3.22
2019-05-07T08:47:42.530Z,4.42
2019-05-07T08:52:46.582Z,3.30
2019-05-07T08:57:52.463Z,2.72
2019-05-07T09:02:56.882Z,5.47
2019-05-07T09:08:02.278Z,5.47
2019-05-07T09:13:06.704Z,4.28
2019-05-07T09:18:12.428Z,4.60
2019-05-07T09:23:16.862Z,5.47
2019-05-07T09:28:22.310Z,4.58
2019-05-07T09:33:39.049Z,2.65
2019-05-07T09:38:56.106Z,2.92
2019-05-07T09:43:51.733Z,2.00
2019-05-07T09:48:55.517Z,1.77
2019-05-07T09:53:59.799Z,1.80
2019-05-07T09:59:04.046Z,1.42
2019-05-07T10:04:10.474Z,1.40
2019-05-07T10:09:15.109Z,1.42
2019-05-07T10:19:22.856Z,2.72
2019-05-07T10:24:26.922Z,2.80
2019-05-07T10:29:32.585Z,2.20
2019-05-07T10:34:36.695Z,2.52
2019-05-07T10:39:42.903Z,2.62
2019-05-07T10:45:07.573Z,2.30
2019-05-07T10:50:38.900Z,2.80
2019-05-07T10:55:36.354Z,3.20
2019-05-07T11:00:42.107Z,2.70
2019-05-07T11:05:46.580Z,2.90
2019-05-07T11:10:52.157Z,3.33
2019-05-07T11:16:05.580Z,3.58
2019-05-07T11:21:11.862Z,3.35
2019-05-07T11:26:16.134Z,4.47
2019-05-07T11:31:22.366Z,4.05
2019-05-07T11:36:26.729Z,4.22
2019-05-07T11:41:38.001Z,3.92
2019-05-07T11:47:03.101Z,4.40
2019-05-07T11:52:14.886Z,4.60
2019-05-07T11:57:18.185Z,4.47
2019-05-07T12:02:22.748Z,4.47
2019-05-07T12:07:27.067Z,4.95
2019-05-07T12:12:32.568Z,4.78
2019-05-07T12:17:36.762Z,4.30
2019-05-07T12:22:47.086Z,4.90
2019-05-07T12:27:52.885Z,4.67
2019-05-07T12:33:08.229Z,5.30
2019-05-07T12:38:12.839Z,4.87
2019-05-07T12:48:21.742Z,5.00
2019-05-07T12:53:43.460Z,4.90
2019-05-07T12:58:47.554Z,4.70
2019-05-07T13:04:02.502Z,5.03
2019-05-07T13:09:07.271Z,5.03
2019-05-07T13:14:12.587Z,4.42
2019-05-07T13:19:17.084Z,4.78
2019-05-07T13:24:22.796Z,5.20
2019-05-07T13:29:27.078Z,5.10
2019-05-07T13:34:33.793Z,5.15
2019-05-07T13:39:45.598Z,5.75
2019-05-07T13:45:03.517Z,4.25
2019-05-07T13:50:08.069Z,4.83
2019-05-07T13:55:14.044Z,5.42
2019-05-07T14:00:26.897Z,6.85
2019-05-07T14:05:32.345Z,5.08
2019-05-07T14:10:36.704Z,5.92
2019-05-07T14:15:43.000Z,5.50
2019-05-07T14:20:47.347Z,5.75
2019-05-07T14:25:52.657Z,6.95
2019-05-07T14:30:58.251Z,9.23
2019-05-07T14:36:07.976Z,4.97
2019-05-07T14:41:13.610Z,6.37
2019-05-07T14:46:20.130Z,4.70
2019-05-07T14:51:24.345Z,4.75
2019-05-07T14:56:28.727Z,6.17
2019-05-07T15:01:34.175Z,4.90
2019-05-07T15:11:42.455Z,5.45
2019-05-07T15:16:47.728Z,5.28
2019-05-07T15:21:55.174Z,5.80
2019-05-07T15:27:03.552Z,5.40
2019-05-07T15:32:12.659Z,4.97
2019-05-07T15:37:16.781Z,5.28
2019-05-07T15:42:22.150Z,6.67
2019-05-07T15:47:34.388Z,6.35
2019-05-07T15:53:08.362Z,6.47
2019-05-07T15:58:14.295Z,6.33
2019-05-07T16:03:23.576Z,6.22
2019-05-07T16:08:31.894Z,5.90
2019-05-07T16:13:37.859Z,6.60
2019-05-07T16:19:01.926Z,6.33
2019-05-07T16:24:06.404Z,4.70
2019-05-07T16:29:13.029Z,6.05
2019-05-07T16:34:16.594Z,5.65
2019-05-07T16:39:22.182Z,5.45
2019-05-07T16:44:26.395Z,6.10
2019-05-07T16:49:31.869Z,6.30
2019-05-07T16:54:36.437Z,5.60
2019-05-07T16:59:42.721Z,6.12
2019-05-07T17:05:05.563Z,7.05
2019-05-07T17:10:11.702Z,7.10
2019-05-07T17:15:16.528Z,7.08
2019-05-07T17:20:22.012Z,6.95
2019-05-07T17:25:38.138Z,7.03
2019-05-07T17:30:42.286Z,7.45
2019-05-07T17:35:46.430Z,6.92
2019-05-07T17:40:52.130Z,6.97
2019-05-07T17:45:56.769Z,7.80
2019-05-07T17:51:25.897Z,6.67
2019-05-07T17:56:31.914Z,7.33
2019-05-07T18:01:54.169Z,6.67
2019-05-07T18:07:00.418Z,7.08
2019-05-07T18:12:05.065Z,7.47
2019-05-07T18:17:35.140Z,7.17
2019-05-07T18:22:39.103Z,6.35
2019-05-07T18:27:43.192Z,6.53
2019-05-07T18:32:53.246Z,7.62
2019-05-07T18:37:57.667Z,7.15
2019-05-07T18:43:03.054Z,7.90
2019-05-07T18:48:07.263Z,7.05
2019-05-07T18:53:12.248Z,6.17
2019-05-07T18:58:16.547Z,6.40
2019-05-07T19:03:21.826Z,6.10
2019-05-07T19:08:26.341Z,5.80
2019-05-07T19:13:32.497Z,6.20
2019-05-07T19:18:36.219Z,5.55
2019-05-07T19:23:42.359Z,6.08
2019-05-07T19:28:46.343Z,5.78
2019-05-07T19:33:52.521Z,5.78
2019-05-07T19:38:58.732Z,5.90
2019-05-07T19:44:02.802Z,6.08
2019-05-07T19:49:07.305Z,6.92
2019-05-07T19:59:14.898Z,6.65
2019-05-07T20:04:20.598Z,6.80
2019-05-07T20:09:29.385Z,6.40
2019-05-07T20:14:36.243Z,7.28
2019-05-07T20:19:41.770Z,6.65
2019-05-07T20:24:47.017Z,7.87
2019-05-07T20:29:52.234Z,7.17
2019-05-07T20:34:56.544Z,7.37
2019-05-07T20:40:03.042Z,7.80
2019-05-07T20:45:07.396Z,6.90
2019-05-07T20:50:12.712Z,7.03
2019-05-07T20:55:33.888Z,8.20
2019-05-07T21:00:37.065Z,7.83
2019-05-07T21:05:42.158Z,8.40
2019-05-07T21:10:46.454Z,7.92
2019-05-07T21:15:52.683Z,8.03
2019-05-07T21:20:57.084Z,9.90
2019-05-07T21:26:02.197Z,10.10
2019-05-07T21:31:06.461Z,8.18
2019-05-07T21:36:12.099Z,9.28
2019-05-07T21:41:16.436Z,9.43
2019-05-07T21:46:22.235Z,9.15
2019-05-07T21:51:26.479Z,8.98
2019-05-07T21:56:41.247Z,8.78
2019-05-07T22:01:47.321Z,8.75
2019-05-07T22:06:52.374Z,9.40
2019-05-07T22:11:57.971Z,9.83
2019-05-07T22:17:02.161Z,10.03
2019-05-07T22:22:06.326Z,11.08
2019-05-07T22:27:12.653Z,11.22
2019-05-07T22:32:27.623Z,8.78
2019-05-07T22:37:32.515Z,8.25
2019-05-07T22:42:37.095Z,9.75
2019-05-07T22:47:42.050Z,8.68
2019-05-07T22:52:46.543Z,7.83
2019-05-07T22:58:12.341Z,7.47
2019-05-07T23:03:15.896Z,7.45
2019-05-07T23:08:22.135Z,7.45
2019-05-07T23:13:25.872Z,7.92
2019-05-07T23:18:31.875Z,6.97
2019-05-07T23:23:35.984Z,8.15
2019-05-07T23:28:41.873Z,7.80
2019-05-07T23:33:46.559Z,7.78
2019-05-07T23:38:52.068Z,6.72
2019-05-07T23:44:14.155Z,7.62
2019-05-07T23:49:18.467Z,8.78
2019-05-07T23:54:23.140Z,8.23
2019-05-07T23:59:27.516Z,8.33
